createdAt,value
2019-01-25T00:00:56.155Z,49.63
2019-01-25T00:03:30.455Z,54.77
2019-01-25T00:06:05.154Z,47.93
2019-01-25T00:08:39.566Z,57.63
2019-01-25T00:11:13.859Z,54.73
2019-01-25T00:13:48.176Z,43.93
2019-01-25T00:16:22.476Z,53.90
2019-01-25T00:18:56.806Z,43.30
2019-01-25T00:21:31.105Z,61.30
2019-01-25T00:24:05.800Z,50.43
2019-01-25T00:26:40.100Z,41.40
2019-01-25T00:29:14.430Z,37.43
2019-01-25T00:31:48.729Z,36.77
2019-01-25T00:34:23.134Z,51.37
2019-01-25T00:36:57.436Z,51.13
2019-01-25T00:39:31.756Z,42.80
2019-01-25T00:42:06.180Z,37.17
2019-01-25T00:44:40.477Z,34.60
2019-01-25T00:47:14.806Z,38.63
2019-01-25T00:49:49.112Z,40.63
2019-01-25T00:52:23.913Z,37.73
2019-01-25T00:54:58.234Z,52.30
2019-01-25T00:57:32.530Z,40.40
2019-01-25T01:00:14.647Z,39.97
2019-01-25T01:02:48.946Z,44.47
2019-01-25T01:05:23.280Z,41.27
2019-01-25T01:07:57.573Z,49.00
2019-01-25T01:10:31.901Z,39.27
2019-01-25T01:13:06.197Z,42.53
2019-01-25T01:15:40.535Z,40.70
2019-01-25T01:18:14.834Z,41.13
2019-01-25T01:20:49.160Z,32.17
2019-01-25T01:23:23.477Z,22.20
2019-01-25T01:25:57.800Z,51.77
2019-01-25T01:28:32.122Z,41.20
2019-01-25T01:31:06.446Z,39.33
2019-01-25T01:33:40.774Z,33.67
2019-01-25T01:36:15.064Z,27.50
2019-01-25T01:38:49.406Z,37.13
2019-01-25T01:41:23.703Z,45.73
2019-01-25T01:43:58.023Z,55.93
2019-01-25T01:46:32.354Z,44.20
2019-01-25T01:49:06.675Z,35.13
2019-01-25T01:51:40.973Z,46.60
2019-01-25T01:54:15.294Z,44.07
2019-01-25T01:56:49.629Z,46.57
2019-01-25T01:59:23.943Z,30.57
2019-01-25T02:01:58.319Z,36.60
2019-01-25T02:04:32.618Z,40.53
2019-01-25T02:07:06.939Z,14.13
2019-01-25T02:09:41.265Z,31.90
2019-01-25T02:12:15.632Z,30.33
2019-01-25T02:14:49.954Z,36.60
2019-01-25T02:17:24.253Z,41.43
2019-01-25T02:19:58.581Z,37.77
2019-01-25T02:22:32.881Z,36.97
2019-01-25T02:25:07.884Z,52.10
2019-01-25T02:27:42.189Z,46.07
2019-01-25T02:30:22.473Z,39.30
2019-01-25T02:32:56.805Z,33.97
2019-01-25T02:35:31.129Z,40.70
2019-01-25T02:38:05.423Z,21.00
2019-01-25T02:40:39.758Z,33.90
2019-01-25T02:43:14.059Z,41.80
2019-01-25T02:45:48.390Z,38.20
2019-01-25T02:48:22.690Z,45.43
2019-01-25T02:50:57.005Z,37.10
2019-01-25T02:53:31.336Z,33.77
2019-01-25T02:56:05.733Z,38.80
2019-01-25T02:58:40.032Z,28.00
2019-01-25T03:01:14.352Z,31.70
2019-01-25T03:03:48.651Z,37.83
2019-01-25T03:06:22.987Z,38.13
2019-01-25T03:08:57.307Z,34.30
2019-01-25T03:11:31.632Z,31.87
2019-01-25T03:14:05.999Z,28.27
2019-01-25T03:16:40.335Z,35.47
2019-01-25T03:19:14.655Z,27.67
2019-01-25T03:21:48.953Z,14.70
2019-01-25T03:24:23.276Z,31.00
2019-01-25T03:27:00.048Z,34.00
2019-01-25T03:29:33.624Z,26.27
2019-01-25T03:32:07.925Z,27.83
2019-01-25T03:34:42.247Z,29.07
2019-01-25T03:37:16.570Z,39.40
2019-01-25T03:39:50.894Z,22.60
2019-01-25T03:42:25.192Z,27.03
2019-01-25T03:44:59.508Z,38.20
2019-01-25T03:47:33.856Z,28.93
2019-01-25T03:50:18.760Z,24.27
2019-01-25T03:52:53.772Z,41.73
2019-01-25T03:55:28.332Z,26.97
2019-01-25T03:58:02.663Z,18.07
2019-01-25T04:00:36.991Z,24.53
2019-01-25T04:03:11.291Z,29.80
2019-01-25T04:05:45.619Z,27.97
2019-01-25T04:08:19.912Z,17.80
2019-01-25T04:10:54.239Z,30.37
2019-01-25T04:13:28.567Z,24.53
2019-01-25T04:16:02.866Z,33.37
2019-01-25T04:18:37.187Z,25.37
2019-01-25T04:21:11.504Z,19.07
2019-01-25T04:23:45.823Z,33.87
2019-01-25T04:26:20.156Z,32.67
2019-01-25T04:28:56.099Z,29.50
2019-01-25T04:31:30.439Z,25.43
2019-01-25T04:34:04.723Z,23.73
2019-01-25T04:36:39.047Z,29.10
2019-01-25T04:39:13.362Z,38.63
2019-01-25T04:41:47.665Z,28.10
2019-01-25T04:44:21.983Z,40.97
2019-01-25T04:46:56.285Z,25.80
2019-01-25T04:49:31.707Z,33.40
2019-01-25T04:52:12.467Z,23.20
2019-01-25T04:54:46.804Z,35.77
2019-01-25T04:57:21.211Z,29.00
2019-01-25T04:59:55.569Z,27.37
2019-01-25T05:02:29.877Z,29.33
2019-01-25T05:05:05.433Z,26.47
2019-01-25T05:07:39.735Z,41.20
2019-01-25T05:10:14.069Z,31.40
2019-01-25T05:12:53.344Z,20.80
2019-01-25T05:15:27.635Z,50.20
2019-01-25T05:18:01.963Z,43.47
2019-01-25T05:20:36.262Z,21.73
2019-01-25T05:23:10.656Z,20.97
2019-01-25T05:25:44.953Z,26.90
2019-01-25T05:28:19.366Z,10.07
2019-01-25T05:30:59.472Z,30.67
2019-01-25T05:33:33.788Z,27.07
2019-01-25T05:36:08.085Z,26.57
2019-01-25T05:38:46.059Z,22.73
2019-01-25T05:41:27.881Z,29.50
2019-01-25T05:43:56.448Z,19.40
2019-01-25T05:46:30.741Z,29.77
2019-01-25T05:49:05.072Z,41.60
2019-01-25T05:51:39.396Z,41.27
2019-01-25T05:54:13.695Z,18.47
2019-01-25T05:56:48.022Z,29.67
2019-01-25T05:59:24.379Z,36.80
2019-01-25T06:01:58.705Z,35.87
2019-01-25T06:04:38.613Z,60.27
2019-01-25T06:07:12.911Z,63.80
2019-01-25T06:09:47.244Z,31.67
2019-01-25T06:12:21.534Z,63.90
2019-01-25T06:14:55.861Z,33.10
2019-01-25T06:17:30.155Z,32.80
2019-01-25T06:20:07.612Z,33.70
2019-01-25T06:22:41.944Z,47.13
2019-01-25T06:25:16.268Z,28.20
2019-01-25T06:27:50.565Z,33.07
2019-01-25T06:30:24.894Z,61.43
2019-01-25T06:32:59.194Z,36.40
2019-01-25T06:35:33.526Z,54.87
2019-01-25T06:38:07.925Z,41.97
2019-01-25T06:40:42.222Z,40.90
2019-01-25T06:43:16.549Z,66.27
2019-01-25T06:45:50.878Z,41.63
2019-01-25T06:48:25.176Z,23.17
2019-01-25T06:50:59.497Z,21.97
2019-01-25T06:53:33.793Z,55.47
2019-01-25T06:56:08.128Z,62.10
2019-01-25T06:58:44.096Z,46.73
2019-01-25T07:01:23.004Z,43.40
2019-01-25T07:03:57.306Z,47.47
2019-01-25T07:06:31.647Z,48.17
2019-01-25T07:09:09.082Z,49.60
2019-01-25T07:11:43.413Z,41.10
2019-01-25T07:14:17.742Z,33.80
2019-01-25T07:16:52.043Z,58.90
2019-01-25T07:19:26.367Z,51.27
2019-01-25T07:22:00.703Z,45.50
2019-01-25T07:24:34.999Z,38.10
2019-01-25T07:27:09.342Z,80.57
2019-01-25T07:29:43.652Z,95.77
2019-01-25T07:32:18.321Z,96.30
2019-01-25T07:34:52.651Z,91.13
2019-01-25T07:37:27.041Z,79.30
2019-01-25T07:40:01.390Z,72.10
2019-01-25T07:42:35.663Z,55.87
2019-01-25T07:45:13.282Z,55.07
2019-01-25T07:47:47.582Z,76.20
2019-01-25T07:50:23.191Z,78.80
2019-01-25T07:52:57.502Z,82.83
2019-01-25T07:55:31.812Z,89.23
2019-01-25T07:58:06.175Z,85.97
2019-01-25T08:00:40.546Z,96.33
2019-01-25T08:03:15.026Z,120.10
2019-01-25T08:05:49.354Z,119.23
2019-01-25T08:08:23.694Z,116.17
2019-01-25T08:10:58.058Z,110.57
2019-01-25T08:13:33.285Z,107.13
2019-01-25T08:16:07.571Z,87.63
2019-01-25T08:18:41.903Z,105.20
2019-01-25T08:21:16.277Z,88.63
2019-01-25T08:23:50.650Z,75.90
2019-01-25T08:26:24.957Z,84.93
2019-01-25T08:28:59.277Z,86.03
2019-01-25T08:31:33.609Z,70.27
2019-01-25T08:34:07.897Z,81.97
2019-01-25T08:36:42.225Z,79.67
2019-01-25T08:39:16.521Z,68.53
2019-01-25T08:41:50.863Z,90.60
2019-01-25T08:44:25.248Z,86.47
2019-01-25T08:46:59.557Z,74.50
2019-01-25T08:49:33.973Z,76.77
2019-01-25T08:52:08.426Z,81.03
2019-01-25T08:54:44.326Z,60.33
2019-01-25T08:57:18.667Z,69.97
2019-01-25T08:59:53.051Z,80.43
2019-01-25T09:02:27.348Z,76.20
2019-01-25T09:05:01.683Z,77.90
2019-01-25T09:07:36.008Z,75.70
2019-01-25T09:10:17.676Z,70.63
2019-01-25T09:12:52.005Z,70.27
2019-01-25T09:15:32.606Z,61.10
2019-01-25T09:18:06.944Z,68.80
2019-01-25T09:20:41.242Z,69.20
2019-01-25T09:23:15.583Z,61.40
2019-01-25T09:25:49.873Z,58.30
2019-01-25T09:28:24.203Z,49.03
2019-01-25T09:30:58.529Z,61.53
2019-01-25T09:33:32.827Z,62.20
2019-01-25T09:36:07.216Z,57.53
2019-01-25T09:38:41.562Z,66.13
2019-01-25T09:41:15.885Z,55.20
2019-01-25T09:43:50.190Z,61.17
2019-01-25T09:46:24.803Z,67.03
2019-01-25T09:48:59.267Z,58.27
2019-01-25T09:51:33.824Z,55.63
2019-01-25T09:54:08.188Z,56.53
2019-01-25T09:56:42.517Z,79.53
2019-01-25T09:59:16.925Z,85.83
2019-01-25T10:01:51.211Z,72.33
2019-01-25T10:04:25.536Z,76.90
2019-01-25T10:06:59.823Z,67.37
2019-01-25T10:09:34.142Z,79.90
2019-01-25T10:12:08.497Z,75.87
2019-01-25T10:14:42.823Z,83.53
2019-01-25T10:17:17.148Z,76.60
2019-01-25T10:19:52.465Z,87.07
2019-01-25T10:22:26.757Z,99.30
2019-01-25T10:25:01.157Z,103.37
2019-01-25T10:27:35.451Z,95.27
2019-01-25T10:30:17.209Z,97.50
2019-01-25T10:32:51.551Z,98.10
2019-01-25T10:35:25.880Z,86.53
2019-01-25T10:38:00.329Z,103.33
2019-01-25T10:40:34.619Z,98.63
2019-01-25T10:43:09.154Z,90.30
2019-01-25T10:45:44.443Z,92.57
2019-01-25T10:48:19.006Z,81.80
2019-01-25T10:50:53.363Z,87.87
2019-01-25T10:53:27.810Z,83.47
2019-01-25T10:56:02.722Z,93.17
2019-01-25T10:58:37.262Z,108.23
2019-01-25T11:01:11.614Z,90.10
2019-01-25T11:03:46.728Z,98.63
2019-01-25T11:06:21.233Z,95.13
2019-01-25T11:08:55.512Z,108.30
2019-01-25T11:11:29.839Z,91.80
2019-01-25T11:14:04.379Z,78.87
2019-01-25T11:16:38.822Z,96.23
2019-01-25T11:19:13.115Z,91.30
2019-01-25T11:21:47.483Z,90.07
2019-01-25T11:24:21.796Z,91.43
2019-01-25T11:27:00.293Z,81.97
2019-01-25T11:29:32.270Z,109.10
2019-01-25T11:32:06.572Z,92.70
2019-01-25T11:34:40.952Z,91.10
2019-01-25T11:37:15.284Z,103.93
2019-01-25T11:39:49.585Z,97.10
2019-01-25T11:42:23.909Z,104.17
2019-01-25T11:44:58.203Z,99.07
2019-01-25T11:47:32.531Z,96.37
2019-01-25T11:50:11.787Z,88.50
2019-01-25T11:52:46.080Z,88.10
2019-01-25T11:55:20.569Z,78.07
2019-01-25T11:57:54.857Z,86.83
2019-01-25T12:00:32.721Z,82.70
2019-01-25T12:03:07.017Z,89.80
2019-01-25T12:05:41.340Z,89.57
2019-01-25T12:08:15.726Z,108.23
2019-01-25T12:10:50.015Z,80.97
2019-01-25T12:13:24.409Z,85.50
2019-01-25T12:15:58.730Z,79.23
2019-01-25T12:18:33.088Z,77.50
2019-01-25T12:21:07.406Z,68.23
2019-01-25T12:23:41.697Z,60.53
2019-01-25T12:26:16.031Z,69.70
2019-01-25T12:28:50.322Z,61.93
2019-01-25T12:31:24.647Z,68.83
2019-01-25T12:33:58.940Z,70.53
2019-01-25T12:36:33.264Z,69.77
2019-01-25T12:39:08.600Z,64.70
2019-01-25T12:41:42.912Z,66.93
2019-01-25T12:44:17.248Z,66.07
2019-01-25T12:46:51.567Z,79.53
2019-01-25T12:49:25.893Z,63.63
2019-01-25T12:52:00.216Z,60.53
2019-01-25T12:54:34.525Z,55.17
2019-01-25T12:57:08.858Z,55.90
2019-01-25T12:59:43.145Z,60.03
2019-01-25T13:02:17.511Z,64.80
2019-01-25T13:04:51.868Z,61.83
2019-01-25T13:07:26.186Z,54.37
2019-01-25T13:10:00.505Z,58.90
2019-01-25T13:12:34.801Z,50.13
2019-01-25T13:15:11.836Z,59.87
2019-01-25T13:17:46.137Z,73.93
2019-01-25T13:20:23.659Z,65.57
2019-01-25T13:22:59.570Z,69.73
2019-01-25T13:25:33.783Z,70.60
2019-01-25T13:28:08.142Z,75.83
2019-01-25T13:30:42.433Z,73.87
2019-01-25T13:33:16.756Z,76.10
2019-01-25T13:35:51.051Z,86.13
2019-01-25T13:38:25.445Z,74.17
2019-01-25T13:40:59.736Z,96.20
2019-01-25T13:43:38.990Z,87.80
2019-01-25T13:46:10.083Z,76.93
2019-01-25T13:48:44.399Z,83.20
2019-01-25T13:51:18.715Z,81.00
2019-01-25T13:53:53.039Z,75.23
2019-01-25T13:56:27.351Z,73.13
2019-01-25T13:59:01.644Z,77.00
2019-01-25T14:01:35.954Z,68.67
2019-01-25T14:04:10.266Z,83.10
2019-01-25T14:06:44.592Z,88.70
2019-01-25T14:09:18.885Z,84.03
2019-01-25T14:11:53.203Z,84.97
2019-01-25T14:14:27.537Z,70.30
2019-01-25T14:17:01.813Z,89.40
2019-01-25T14:19:36.131Z,88.30
2019-01-25T14:22:10.449Z,68.67
2019-01-25T14:24:44.745Z,72.33
2019-01-25T14:27:19.081Z,66.17
2019-01-25T14:29:53.399Z,64.03
2019-01-25T14:32:27.697Z,81.10
2019-01-25T14:35:02.013Z,67.63
2019-01-25T14:37:36.331Z,64.90
2019-01-25T14:40:10.629Z,62.43
2019-01-25T14:42:44.951Z,50.63
2019-01-25T14:45:20.780Z,52.70
2019-01-25T14:47:55.095Z,65.63
2019-01-25T14:50:32.014Z,27.93
2019-01-25T14:53:06.701Z,33.40
2019-01-25T14:55:41.016Z,28.37
2019-01-25T14:58:15.310Z,29.67
2019-01-25T15:00:49.634Z,28.63
2019-01-25T15:03:23.929Z,28.63
2019-01-25T15:05:58.282Z,38.70
2019-01-25T15:08:32.543Z,28.00
2019-01-25T15:11:06.862Z,31.10
2019-01-25T15:13:41.253Z,27.43
2019-01-25T15:16:15.579Z,30.07
2019-01-25T15:18:49.898Z,32.90
2019-01-25T15:21:24.187Z,35.47
2019-01-25T15:23:58.511Z,41.50
2019-01-25T15:26:32.798Z,35.30
2019-01-25T15:29:07.132Z,37.50
2019-01-25T15:31:41.420Z,33.47
2019-01-25T15:34:15.735Z,34.53
2019-01-25T15:36:50.023Z,54.63
2019-01-25T15:39:24.346Z,37.73
2019-01-25T15:41:58.633Z,41.03
2019-01-25T15:44:32.961Z,31.80
2019-01-25T15:47:07.278Z,40.73
2019-01-25T15:49:41.584Z,33.03
2019-01-25T15:52:15.895Z,29.07
2019-01-25T15:54:50.220Z,49.13
2019-01-25T15:57:24.509Z,33.50
2019-01-25T15:59:58.820Z,22.77
2019-01-25T16:02:33.145Z,31.83
2019-01-25T16:05:10.079Z,36.30
2019-01-25T16:07:44.406Z,41.10
2019-01-25T16:10:21.217Z,37.50
2019-01-25T16:12:55.623Z,52.67
2019-01-25T16:15:30.602Z,49.93
2019-01-25T16:18:04.886Z,46.17
2019-01-25T16:20:39.208Z,38.70
2019-01-25T16:23:13.511Z,50.80
2019-01-25T16:25:47.851Z,43.33
2019-01-25T16:28:22.136Z,51.67
2019-01-25T16:30:56.469Z,44.03
2019-01-25T16:33:30.788Z,57.70
2019-01-25T16:36:05.093Z,33.20
2019-01-25T16:38:39.419Z,57.30
2019-01-25T16:41:13.744Z,63.93
2019-01-25T16:43:48.066Z,58.67
2019-01-25T16:46:22.387Z,56.43
2019-01-25T16:48:56.719Z,55.70
2019-01-25T16:51:31.020Z,58.00
2019-01-25T16:54:05.611Z,51.67
2019-01-25T16:56:39.932Z,46.30
2019-01-25T16:59:14.232Z,70.67
2019-01-25T17:01:48.567Z,49.43
2019-01-25T17:04:22.911Z,54.33
2019-01-25T17:06:57.272Z,60.27
2019-01-25T17:09:31.563Z,42.07
2019-01-25T17:12:05.887Z,82.60
2019-01-25T17:14:40.216Z,37.53
2019-01-25T17:17:14.540Z,40.93
2019-01-25T17:19:48.915Z,35.17
2019-01-25T17:22:23.238Z,43.57
2019-01-25T17:24:57.570Z,40.17
2019-01-25T17:27:31.908Z,51.37
2019-01-25T17:30:19.752Z,42.80
2019-01-25T17:32:56.202Z,49.03
2019-01-25T17:35:31.412Z,53.40
2019-01-25T17:38:05.801Z,77.30
2019-01-25T17:40:46.669Z,79.60
2019-01-25T17:43:18.984Z,86.87
2019-01-25T17:45:53.282Z,74.73
2019-01-25T17:48:27.611Z,78.27
2019-01-25T17:51:01.911Z,72.00
2019-01-25T17:53:36.238Z,96.77
2019-01-25T17:56:10.546Z,87.87
2019-01-25T17:58:44.886Z,126.90
2019-01-25T18:01:19.192Z,119.37
2019-01-25T18:03:53.536Z,130.90
2019-01-25T18:06:27.838Z,104.03
2019-01-25T18:09:02.169Z,116.30
2019-01-25T18:11:36.467Z,127.20
2019-01-25T18:14:10.801Z,97.83
2019-01-25T18:16:45.125Z,72.17
2019-01-25T18:19:19.451Z,73.00
2019-01-25T18:21:53.791Z,101.27
2019-01-25T18:24:28.085Z,77.83
2019-01-25T18:27:02.412Z,87.67
2019-01-25T18:29:36.883Z,77.03
2019-01-25T18:32:11.183Z,69.37
2019-01-25T18:34:45.507Z,81.53
2019-01-25T18:37:19.803Z,84.57
2019-01-25T18:39:54.124Z,94.93
2019-01-25T18:42:28.427Z,99.87
2019-01-25T18:45:02.746Z,89.23
2019-01-25T18:47:37.045Z,63.93
2019-01-25T18:50:15.542Z,63.77
2019-01-25T18:52:49.835Z,64.07
2019-01-25T18:55:26.072Z,78.17
2019-01-25T18:58:00.406Z,68.57
2019-01-25T19:00:34.705Z,79.10
2019-01-25T19:03:09.022Z,61.40
2019-01-25T19:05:43.341Z,68.30
2019-01-25T19:08:17.665Z,66.73
2019-01-25T19:10:51.973Z,51.03
2019-01-25T19:13:26.292Z,55.87
2019-01-25T19:16:00.589Z,68.60
2019-01-25T19:18:34.910Z,50.47
2019-01-25T19:21:09.238Z,52.70
2019-01-25T19:23:43.582Z,59.50
2019-01-25T19:26:19.501Z,33.07
2019-01-25T19:28:53.988Z,64.87
2019-01-25T19:31:28.327Z,49.23
2019-01-25T19:34:02.623Z,69.90
2019-01-25T19:36:36.955Z,56.70
2019-01-25T19:39:11.352Z,60.70
2019-01-25T19:41:45.663Z,54.17
2019-01-25T19:44:19.993Z,59.23
2019-01-25T19:46:54.290Z,50.47
2019-01-25T19:49:28.617Z,57.50
2019-01-25T19:52:02.921Z,57.50
2019-01-25T19:54:37.245Z,42.53
2019-01-25T19:57:11.546Z,49.10
2019-01-25T19:59:45.878Z,58.30
2019-01-25T20:02:20.174Z,25.50
2019-01-25T20:04:54.513Z,48.30
2019-01-25T20:07:28.811Z,50.07
2019-01-25T20:10:04.082Z,46.83
2019-01-25T20:12:38.389Z,43.83
2019-01-25T20:15:20.263Z,40.80
2019-01-25T20:17:54.587Z,43.07
2019-01-25T20:20:35.497Z,43.63
2019-01-25T20:23:09.838Z,48.10
2019-01-25T20:25:44.139Z,55.73
2019-01-25T20:28:18.468Z,56.47
2019-01-25T20:30:52.761Z,26.20
2019-01-25T20:33:27.089Z,25.53
2019-01-25T20:36:01.457Z,43.50
2019-01-25T20:38:35.798Z,50.20
2019-01-25T20:41:10.099Z,53.73
2019-01-25T20:43:44.427Z,43.13
2019-01-25T20:46:18.727Z,65.37
2019-01-25T20:48:53.043Z,36.60
2019-01-25T20:51:27.338Z,39.80
2019-01-25T20:54:01.669Z,52.57
2019-01-25T20:56:35.961Z,42.23
2019-01-25T20:59:10.284Z,45.30
2019-01-25T21:01:44.584Z,39.83
2019-01-25T21:04:18.921Z,53.33
2019-01-25T21:06:53.219Z,45.13
2019-01-25T21:09:27.558Z,29.93
2019-01-25T21:12:01.858Z,54.37
2019-01-25T21:14:36.181Z,41.57
2019-01-25T21:17:10.506Z,46.13
2019-01-25T21:19:44.809Z,48.17
2019-01-25T21:22:19.136Z,53.00
2019-01-25T21:24:53.462Z,49.97
2019-01-25T21:27:27.784Z,28.57
2019-01-25T21:30:02.106Z,54.10
2019-01-25T21:32:36.437Z,39.90
2019-01-25T21:35:11.017Z,42.80
2019-01-25T21:37:45.317Z,48.67
2019-01-25T21:40:28.567Z,67.77
2019-01-25T21:43:02.867Z,51.77
2019-01-25T21:45:42.872Z,57.13
2019-01-25T21:48:13.260Z,59.67
2019-01-25T21:50:47.723Z,48.63
2019-01-25T21:53:22.058Z,36.57
2019-01-25T21:55:56.401Z,51.60
2019-01-25T21:58:30.696Z,46.90
2019-01-25T22:01:05.261Z,43.30
2019-01-25T22:03:39.591Z,42.03
2019-01-25T22:06:13.908Z,53.07
2019-01-25T22:08:48.221Z,35.17
2019-01-25T22:11:22.524Z,53.33
2019-01-25T22:13:56.848Z,50.83
2019-01-25T22:16:31.150Z,28.40
2019-01-25T22:19:05.484Z,42.33
2019-01-25T22:21:39.807Z,58.93
2019-01-25T22:24:14.136Z,61.20
2019-01-25T22:26:48.458Z,43.27
2019-01-25T22:29:23.150Z,37.00
2019-01-25T22:31:57.443Z,32.90
2019-01-25T22:34:31.767Z,35.77
2019-01-25T22:37:06.064Z,36.63
2019-01-25T22:39:40.386Z,41.10
2019-01-25T22:42:14.702Z,45.73
2019-01-25T22:44:49.028Z,22.70
2019-01-25T22:47:23.324Z,32.03
2019-01-25T22:49:57.649Z,45.83
2019-01-25T22:52:31.949Z,51.43
2019-01-25T22:55:13.493Z,32.23
2019-01-25T22:57:47.822Z,34.60
2019-01-25T23:00:50.596Z,39.47
2019-01-25T23:03:41.515Z,38.00
2019-01-25T23:06:20.733Z,31.77
2019-01-25T23:08:56.848Z,30.00
2019-01-25T23:11:31.177Z,44.03
2019-01-25T23:14:07.032Z,36.60
2019-01-25T23:16:41.428Z,36.43
2019-01-25T23:19:15.728Z,14.10
2019-01-25T23:21:50.395Z,37.13
2019-01-25T23:24:24.798Z,23.60
2019-01-25T23:27:00.882Z,24.10
2019-01-25T23:29:35.192Z,27.20
2019-01-25T23:32:09.525Z,37.73
2019-01-25T23:34:43.866Z,28.27
2019-01-25T23:37:18.173Z,30.90
2019-01-25T23:39:52.474Z,11.37
2019-01-25T23:42:26.796Z,28.70
2019-01-25T23:45:01.097Z,28.30
2019-01-25T23:47:35.420Z,40.63
2019-01-25T23:50:10.186Z,28.50
2019-01-25T23:52:44.506Z,28.63
2019-01-25T23:55:18.918Z,33.37
2019-01-25T23:57:53.338Z,37.33
